sensor_id;sensor_type;location;lat;lon;timestamp;temperature;humidity
56753;DHT22;42627;42.646;23.642;2022-10-17T00:01:32;7.30;86.80
56753;DHT22;42627;42.646;23.642;2022-10-17T00:03:34;7.30;85.60
56753;DHT22;42627;42.646;23.642;2022-10-17T00:05:44;7.20;83.50
56753;DHT22;42627;42.646;23.642;2022-10-17T00:07:45;7.10;83.40
56753;DHT22;42627;42.646;23.642;2022-10-17T00:09:45;7.20;84.00
56753;DHT22;42627;42.646;23.642;2022-10-17T00:11:46;7.10;85.10
56753;DHT22;42627;42.646;23.642;2022-10-17T00:14:18;7.00;86.00
56753;DHT22;42627;42.646;23.642;2022-10-17T00:16:27;7.10;86.00
56753;DHT22;42627;42.646;23.642;2022-10-17T00:18:27;7.10;86.00
56753;DHT22;42627;42.646;23.642;2022-10-17T00:20:28;7.20;86.40
56753;DHT22;42627;42.646;23.642;2022-10-17T00:22:32;7.10;86.20
56753;DHT22;42627;42.646;23.642;2022-10-17T00:27:54;7.10;86.70
56753;DHT22;42627;42.646;23.642;2022-10-17T00:30:13;7.00;87.10
56753;DHT22;42627;42.646;23.642;2022-10-17T00:32:14;6.90;86.90
56753;DHT22;42627;42.646;23.642;2022-10-17T00:34:15;6.70;88.40
56753;DHT22;42627;42.646;23.642;2022-10-17T00:36:21;6.60;89.80
56753;DHT22;42627;42.646;23.642;2022-10-17T00:38:22;6.50;90.50
56753;DHT22;42627;42.646;23.642;2022-10-17T00:40:22;6.40;91.10
56753;DHT22;42627;42.646;23.642;2022-10-17T00:42:24;6.30;91.30
56753;DHT22;42627;42.646;23.642;2022-10-17T00:46:37;6.20;92.40
56753;DHT22;42627;42.646;23.642;2022-10-17T00:48:38;6.20;93.30
56753;DHT22;42627;42.646;23.642;2022-10-17T00:50:42;6.20;93.50
56753;DHT22;42627;42.646;23.642;2022-10-17T00:52:44;6.10;94.10
56753;DHT22;42627;42.646;23.642;2022-10-17T00:54:50;6.10;94.50
56753;DHT22;42627;42.646;23.642;2022-10-17T00:56:52;6.20;95.10
56753;DHT22;42627;42.646;23.642;2022-10-17T00:59:24;6.20;94.60
56753;DHT22;42627;42.646;23.642;2022-10-17T01:04:28;6.20;94.30
56753;DHT22;42627;42.646;23.642;2022-10-17T01:06:29;6.30;94.10
56753;DHT22;42627;42.646;23.642;2022-10-17T01:08:30;6.30;93.70
56753;DHT22;42627;42.646;23.642;2022-10-17T01:15:44;6.30;92.90
56753;DHT22;42627;42.646;23.642;2022-10-17T01:30:11;6.20;91.70
56753;DHT22;42627;42.646;23.642;2022-10-17T01:32:22;6.10;92.20
56753;DHT22;42627;42.646;23.642;2022-10-17T01:34:37;6.00;92.30
56753;DHT22;42627;42.646;23.642;2022-10-17T01:42:02;6.00;92.10
56753;DHT22;42627;42.646;23.642;2022-10-17T01:44:58;5.90;92.20
56753;DHT22;42627;42.646;23.642;2022-10-17T01:46:39;5.80;92.10
56753;DHT22;42627;42.646;23.642;2022-10-17T01:48:59;5.60;92.70
56753;DHT22;42627;42.646;23.642;2022-10-17T01:51:08;5.50;93.00
56753;DHT22;42627;42.646;23.642;2022-10-17T01:53:41;5.60;93.10
56753;DHT22;42627;42.646;23.642;2022-10-17T01:55:45;5.50;93.10
56753;DHT22;42627;42.646;23.642;2022-10-17T01:57:54;5.50;93.00
56753;DHT22;42627;42.646;23.642;2022-10-17T01:59:55;5.50;93.10
56753;DHT22;42627;42.646;23.642;2022-10-17T02:01:57;5.50;93.40
56753;DHT22;42627;42.646;23.642;2022-10-17T02:04:17;5.40;93.60
56753;DHT22;42627;42.646;23.642;2022-10-17T02:06:18;5.30;94.30
56753;DHT22;42627;42.646;23.642;2022-10-17T02:08:43;5.30;94.20
56753;DHT22;42627;42.646;23.642;2022-10-17T02:11:03;5.20;94.70
56753;DHT22;42627;42.646;23.642;2022-10-17T02:23:43;5.20;95.80
56753;DHT22;42627;42.646;23.642;2022-10-17T02:26:06;5.30;95.60
56753;DHT22;42627;42.646;23.642;2022-10-17T02:31:03;5.40;94.60
56753;DHT22;42627;42.646;23.642;2022-10-17T02:36:05;5.50;93.60
56753;DHT22;42627;42.646;23.642;2022-10-17T02:38:08;5.40;92.00
56753;DHT22;42627;42.646;23.642;2022-10-17T02:40:13;5.40;92.80
56753;DHT22;42627;42.646;23.642;2022-10-17T02:42:17;5.30;93.30
56753;DHT22;42627;42.646;23.642;2022-10-17T02:45:07;5.20;94.00
56753;DHT22;42627;42.646;23.642;2022-10-17T02:50:05;5.10;94.20
56753;DHT22;42627;42.646;23.642;2022-10-17T03:32:02;4.50;93.70
56753;DHT22;42627;42.646;23.642;2022-10-17T03:34:03;4.60;94.10
56753;DHT22;42627;42.646;23.642;2022-10-17T03:36:12;4.70;93.70
56753;DHT22;42627;42.646;23.642;2022-10-17T03:38:13;4.70;92.90
56753;DHT22;42627;42.646;23.642;2022-10-17T03:40:14;4.60;92.90
56753;DHT22;42627;42.646;23.642;2022-10-17T03:42:15;4.60;93.60
56753;DHT22;42627;42.646;23.642;2022-10-17T03:44:15;4.60;93.50
56753;DHT22;42627;42.646;23.642;2022-10-17T03:46:16;4.60;93.40
56753;DHT22;42627;42.646;23.642;2022-10-17T03:48:17;4.70;93.40
56753;DHT22;42627;42.646;23.642;2022-10-17T03:56:49;4.50;94.40
56753;DHT22;42627;42.646;23.642;2022-10-17T03:58:49;4.40;94.80
56753;DHT22;42627;42.646;23.642;2022-10-17T04:00:56;4.40;94.90
56753;DHT22;42627;42.646;23.642;2022-10-17T04:12:05;4.40;96.30
56753;DHT22;42627;42.646;23.642;2022-10-17T04:14:06;4.50;94.80
56753;DHT22;42627;42.646;23.642;2022-10-17T04:16:10;4.50;93.80
56753;DHT22;42627;42.646;23.642;2022-10-17T04:18:33;4.60;93.40
56753;DHT22;42627;42.646;23.642;2022-10-17T04:20:34;4.60;92.30
56753;DHT22;42627;42.646;23.642;2022-10-17T04:22:35;4.60;92.50
56753;DHT22;42627;42.646;23.642;2022-10-17T04:24:35;4.60;92.60
56753;DHT22;42627;42.646;23.642;2022-10-17T04:26:36;4.50;93.00
56753;DHT22;42627;42.646;23.642;2022-10-17T04:32:04;4.60;93.10
56753;DHT22;42627;42.646;23.642;2022-10-17T04:34:05;4.70;93.60
56753;DHT22;42627;42.646;23.642;2022-10-17T04:36:12;4.50;94.10
56753;DHT22;42627;42.646;23.642;2022-10-17T04:38:13;4.40;95.00
56753;DHT22;42627;42.646;23.642;2022-10-17T04:40:13;4.30;95.70
56753;DHT22;42627;42.646;23.642;2022-10-17T04:42:14;4.20;96.40
56753;DHT22;42627;42.646;23.642;2022-10-17T04:44:15;4.20;97.00
56753;DHT22;42627;42.646;23.642;2022-10-17T04:46:16;4.20;97.10
56753;DHT22;42627;42.646;23.642;2022-10-17T04:48:35;4.30;96.60
56753;DHT22;42627;42.646;23.642;2022-10-17T04:50:36;4.30;96.10
56753;DHT22;42627;42.646;23.642;2022-10-17T04:52:37;4.30;96.10
56753;DHT22;42627;42.646;23.642;2022-10-17T04:54:37;4.40;94.60
56753;DHT22;42627;42.646;23.642;2022-10-17T04:56:38;4.40;94.00
56753;DHT22;42627;42.646;23.642;2022-10-17T05:01:54;4.40;92.80
56753;DHT22;42627;42.646;23.642;2022-10-17T05:03:55;4.50;92.50
56753;DHT22;42627;42.646;23.642;2022-10-17T05:05:56;4.50;92.90
56753;DHT22;42627;42.646;23.642;2022-10-17T05:07:56;4.50;93.30
56753;DHT22;42627;42.646;23.642;2022-10-17T05:09:57;4.40;93.80
56753;DHT22;42627;42.646;23.642;2022-10-17T05:11:58;4.50;94.00
56753;DHT22;42627;42.646;23.642;2022-10-17T05:14:00;4.50;93.30
56753;DHT22;42627;42.646;23.642;2022-10-17T05:16:01;4.50;93.20
56753;DHT22;42627;42.646;23.642;2022-10-17T05:20:12;4.50;93.70
56753;DHT22;42627;42.646;23.642;2022-10-17T05:22:13;4.50;93.40
56753;DHT22;42627;42.646;23.642;2022-10-17T05:24:14;4.50;93.70
56753;DHT22;42627;42.646;23.642;2022-10-17T05:26:15;4.60;94.00
56753;DHT22;42627;42.646;23.642;2022-10-17T05:31:43;4.70;94.00
56753;DHT22;42627;42.646;23.642;2022-10-17T05:33:44;4.90;93.90
56753;DHT22;42627;42.646;23.642;2022-10-17T05:35:45;4.90;93.80
56753;DHT22;42627;42.646;23.642;2022-10-17T05:37:46;4.90;93.80
56753;DHT22;42627;42.646;23.642;2022-10-17T05:39:46;4.90;94.10
56753;DHT22;42627;42.646;23.642;2022-10-17T05:41:47;4.90;94.30
56753;DHT22;42627;42.646;23.642;2022-10-17T05:43:48;5.00;94.40
56753;DHT22;42627;42.646;23.642;2022-10-17T05:45:49;5.00;94.50
56753;DHT22;42627;42.646;23.642;2022-10-17T05:47:50;5.10;94.60
56753;DHT22;42627;42.646;23.642;2022-10-17T05:49:51;5.10;94.70
56753;DHT22;42627;42.646;23.642;2022-10-17T05:51:52;5.20;94.90
56753;DHT22;42627;42.646;23.642;2022-10-17T05:53:52;5.30;95.00
56753;DHT22;42627;42.646;23.642;2022-10-17T05:55:58;5.40;95.10
56753;DHT22;42627;42.646;23.642;2022-10-17T06:00:56;5.50;95.90
56753;DHT22;42627;42.646;23.642;2022-10-17T06:03:00;5.60;96.70
56753;DHT22;42627;42.646;23.642;2022-10-17T06:05:01;5.70;97.30
56753;DHT22;42627;42.646;23.642;2022-10-17T06:07:02;5.80;97.70
56753;DHT22;42627;42.646;23.642;2022-10-17T06:09:03;5.80;98.40
56753;DHT22;42627;42.646;23.642;2022-10-17T06:11:04;5.90;98.80
56753;DHT22;42627;42.646;23.642;2022-10-17T06:13:05;5.90;99.20
56753;DHT22;42627;42.646;23.642;2022-10-17T06:15:06;6.10;99.10
56753;DHT22;42627;42.646;23.642;2022-10-17T06:17:27;6.20;98.90
56753;DHT22;42627;42.646;23.642;2022-10-17T06:19:29;6.40;99.10
56753;DHT22;42627;42.646;23.642;2022-10-17T06:21:30;6.50;99.50
56753;DHT22;42627;42.646;23.642;2022-10-17T06:23:36;6.70;99.30
56753;DHT22;42627;42.646;23.642;2022-10-17T06:26:02;6.80;99.30
56753;DHT22;42627;42.646;23.642;2022-10-17T06:31:16;7.20;98.30
56753;DHT22;42627;42.646;23.642;2022-10-17T06:33:17;7.40;97.40
56753;DHT22;42627;42.646;23.642;2022-10-17T06:35:18;7.50;97.50
56753;DHT22;42627;42.646;23.642;2022-10-17T06:37:19;7.70;97.40
56753;DHT22;42627;42.646;23.642;2022-10-17T06:39:20;7.90;96.30
56753;DHT22;42627;42.646;23.642;2022-10-17T06:41:20;8.00;95.90
56753;DHT22;42627;42.646;23.642;2022-10-17T06:43:21;8.10;96.70
56753;DHT22;42627;42.646;23.642;2022-10-17T06:47:33;8.40;94.90
56753;DHT22;42627;42.646;23.642;2022-10-17T06:49:34;8.50;94.10
56753;DHT22;42627;42.646;23.642;2022-10-17T06:51:35;8.70;93.80
56753;DHT22;42627;42.646;23.642;2022-10-17T06:53:37;8.80;91.70
56753;DHT22;42627;42.646;23.642;2022-10-17T06:55:38;8.90;92.30
56753;DHT22;42627;42.646;23.642;2022-10-17T06:57:39;9.00;92.60
56753;DHT22;42627;42.646;23.642;2022-10-17T06:59:40;9.20;92.10
56753;DHT22;42627;42.646;23.642;2022-10-17T07:02:02;9.30;90.60
56753;DHT22;42627;42.646;23.642;2022-10-17T07:04:37;9.20;90.60
56753;DHT22;42627;42.646;23.642;2022-10-17T07:06:44;9.30;91.00
56753;DHT22;42627;42.646;23.642;2022-10-17T07:08:45;9.40;89.50
56753;DHT22;42627;42.646;23.642;2022-10-17T07:10:46;9.30;89.20
56753;DHT22;42627;42.646;23.642;2022-10-17T07:12:47;9.30;89.60
56753;DHT22;42627;42.646;23.642;2022-10-17T07:14:48;9.50;90.10
56753;DHT22;42627;42.646;23.642;2022-10-17T07:16:49;9.60;87.90
56753;DHT22;42627;42.646;23.642;2022-10-17T07:18:51;9.80;88.10
56753;DHT22;42627;42.646;23.642;2022-10-17T07:20:57;9.90;86.30
56753;DHT22;42627;42.646;23.642;2022-10-17T07:22:58;10.00;87.80
56753;DHT22;42627;42.646;23.642;2022-10-17T07:24:59;10.20;86.50
56753;DHT22;42627;42.646;23.642;2022-10-17T07:27:00;10.30;85.10
56753;DHT22;42627;42.646;23.642;2022-10-17T07:29:01;10.40;85.60
56753;DHT22;42627;42.646;23.642;2022-10-17T07:31:05;10.50;83.90
56753;DHT22;42627;42.646;23.642;2022-10-17T07:33:11;10.70;83.30
56753;DHT22;42627;42.646;23.642;2022-10-17T07:35:27;10.80;82.00
56753;DHT22;42627;42.646;23.642;2022-10-17T07:37:28;10.90;80.90
56753;DHT22;42627;42.646;23.642;2022-10-17T07:39:28;11.00;80.70
56753;DHT22;42627;42.646;23.642;2022-10-17T07:41:29;11.20;80.80
56753;DHT22;42627;42.646;23.642;2022-10-17T07:43:30;11.30;79.30
56753;DHT22;42627;42.646;23.642;2022-10-17T07:45:32;11.40;77.70
56753;DHT22;42627;42.646;23.642;2022-10-17T07:47:33;11.30;77.40
56753;DHT22;42627;42.646;23.642;2022-10-17T07:49:35;11.30;78.30
56753;DHT22;42627;42.646;23.642;2022-10-17T07:53:52;11.10;78.50
56753;DHT22;42627;42.646;23.642;2022-10-17T07:55:55;11.20;78.70
56753;DHT22;42627;42.646;23.642;2022-10-17T07:57:56;11.40;79.30
56753;DHT22;42627;42.646;23.642;2022-10-17T07:59:57;11.60;77.20
56753;DHT22;42627;42.646;23.642;2022-10-17T08:01:58;11.60;78.00
56753;DHT22;42627;42.646;23.642;2022-10-17T08:03:59;11.60;78.20
56753;DHT22;42627;42.646;23.642;2022-10-17T08:06:30;11.80;78.40
56753;DHT22;42627;42.646;23.642;2022-10-17T08:08:59;11.90;77.20
56753;DHT22;42627;42.646;23.642;2022-10-17T08:11:13;12.00;76.30
56753;DHT22;42627;42.646;23.642;2022-10-17T08:13:14;12.20;76.10
56753;DHT22;42627;42.646;23.642;2022-10-17T08:15:15;12.50;73.90
56753;DHT22;42627;42.646;23.642;2022-10-17T08:17:15;12.60;74.50
56753;DHT22;42627;42.646;23.642;2022-10-17T08:19:19;12.80;73.20
56753;DHT22;42627;42.646;23.642;2022-10-17T08:21:20;13.00;72.40
56753;DHT22;42627;42.646;23.642;2022-10-17T08:23:21;13.20;72.20
56753;DHT22;42627;42.646;23.642;2022-10-17T08:25:22;13.30;71.00
56753;DHT22;42627;42.646;23.642;2022-10-17T08:27:23;13.40;70.80
56753;DHT22;42627;42.646;23.642;2022-10-17T08:29:24;13.40;68.90
56753;DHT22;42627;42.646;23.642;2022-10-17T08:31:25;13.50;69.30
56753;DHT22;42627;42.646;23.642;2022-10-17T08:33:26;13.60;68.50
56753;DHT22;42627;42.646;23.642;2022-10-17T08:35:27;13.70;68.10
56753;DHT22;42627;42.646;23.642;2022-10-17T08:37:28;13.80;67.10
56753;DHT22;42627;42.646;23.642;2022-10-17T08:44:18;13.90;66.70
56753;DHT22;42627;42.646;23.642;2022-10-17T08:46:22;14.30;61.70
56753;DHT22;42627;42.646;23.642;2022-10-17T08:48:31;14.30;63.30
56753;DHT22;42627;42.646;23.642;2022-10-17T08:53:40;14.30;62.60
56753;DHT22;42627;42.646;23.642;2022-10-17T08:56:06;14.30;60.70
56753;DHT22;42627;42.646;23.642;2022-10-17T09:00:19;14.30;60.50
56753;DHT22;42627;42.646;23.642;2022-10-17T16:04:47;14.70;60.80
56753;DHT22;42627;42.646;23.642;2022-10-17T16:06:49;15.70;51.40
56753;DHT22;42627;42.646;23.642;2022-10-17T16:08:50;15.40;51.00
56753;DHT22;42627;42.646;23.642;2022-10-17T16:13:16;15.40;50.80
56753;DHT22;42627;42.646;23.642;2022-10-17T16:15:20;15.30;50.50
56753;DHT22;42627;42.646;23.642;2022-10-17T16:17:24;15.30;50.50
56753;DHT22;42627;42.646;23.642;2022-10-17T16:19:25;15.30;50.50
56753;DHT22;42627;42.646;23.642;2022-10-17T16:21:32;15.30;50.10
56753;DHT22;42627;42.646;23.642;2022-10-17T16:23:37;15.30;50.60
56753;DHT22;42627;42.646;23.642;2022-10-17T16:25:37;15.30;50.60
56753;DHT22;42627;42.646;23.642;2022-10-17T16:27:39;15.30;50.30
56753;DHT22;42627;42.646;23.642;2022-10-17T16:29:40;15.30;50.30
56753;DHT22;42627;42.646;23.642;2022-10-17T16:31:43;15.30;50.50
56753;DHT22;42627;42.646;23.642;2022-10-17T16:33:49;15.30;50.50
56753;DHT22;42627;42.646;23.642;2022-10-17T16:35:50;15.20;50.60
56753;DHT22;42627;42.646;23.642;2022-10-17T16:37:51;15.20;50.60
56753;DHT22;42627;42.646;23.642;2022-10-17T16:39:52;15.20;50.70
56753;DHT22;42627;42.646;23.642;2022-10-17T16:41:55;15.20;50.50
56753;DHT22;42627;42.646;23.642;2022-10-17T16:43:57;15.20;50.70
56753;DHT22;42627;42.646;23.642;2022-10-17T16:46:02;15.20;50.60
56753;DHT22;42627;42.646;23.642;2022-10-17T16:48:03;15.20;50.80
56753;DHT22;42627;42.646;23.642;2022-10-17T16:50:04;15.20;51.20
56753;DHT22;42627;42.646;23.642;2022-10-17T16:52:08;15.10;51.20
56753;DHT22;42627;42.646;23.642;2022-10-17T16:54:09;15.10;51.30
56753;DHT22;42627;42.646;23.642;2022-10-17T16:56:16;15.10;51.40
56753;DHT22;42627;42.646;23.642;2022-10-17T16:58:17;15.10;51.60
56753;DHT22;42627;42.646;23.642;2022-10-17T17:00:18;15.10;51.50
56753;DHT22;42627;42.646;23.642;2022-10-17T17:02:25;15.10;51.50
56753;DHT22;42627;42.646;23.642;2022-10-17T17:04:32;15.10;52.00
56753;DHT22;42627;42.646;23.642;2022-10-17T17:06:32;15.00;51.80
56753;DHT22;42627;42.646;23.642;2022-10-17T17:08:37;15.00;52.00
56753;DHT22;42627;42.646;23.642;2022-10-17T17:10:45;15.00;51.80
56753;DHT22;42627;42.646;23.642;2022-10-17T17:12:46;14.90;52.10
56753;DHT22;42627;42.646;23.642;2022-10-17T17:14:47;14.80;52.50
56753;DHT22;42627;42.646;23.642;2022-10-17T17:16:48;14.80;53.10
56753;DHT22;42627;42.646;23.642;2022-10-17T17:18:55;14.50;54.00
56753;DHT22;42627;42.646;23.642;2022-10-17T17:21:02;14.40;55.10
56753;DHT22;42627;42.646;23.642;2022-10-17T17:23:03;14.10;55.40
56753;DHT22;42627;42.646;23.642;2022-10-17T17:25:25;13.90;55.50
56753;DHT22;42627;42.646;23.642;2022-10-17T17:27:28;13.70;56.20
56753;DHT22;42627;42.646;23.642;2022-10-17T17:29:29;13.40;56.60
56753;DHT22;42627;42.646;23.642;2022-10-17T17:31:31;13.30;56.90
56753;DHT22;42627;42.646;23.642;2022-10-17T17:33:32;13.20;57.20
56753;DHT22;42627;42.646;23.642;2022-10-17T17:35:36;13.10;57.50
56753;DHT22;42627;42.646;23.642;2022-10-17T17:37:38;13.10;57.40
56753;DHT22;42627;42.646;23.642;2022-10-17T17:39:38;13.00;57.60
56753;DHT22;42627;42.646;23.642;2022-10-17T17:41:54;12.80;57.70
56753;DHT22;42627;42.646;23.642;2022-10-17T17:43:55;12.80;57.90
56753;DHT22;42627;42.646;23.642;2022-10-17T17:45:56;12.70;58.50
56753;DHT22;42627;42.646;23.642;2022-10-17T17:47:56;12.70;58.50
56753;DHT22;42627;42.646;23.642;2022-10-17T17:49:57;12.60;58.50
56753;DHT22;42627;42.646;23.642;2022-10-17T17:52:16;12.60;58.70
56753;DHT22;42627;42.646;23.642;2022-10-17T17:54:50;12.60;58.60
56753;DHT22;42627;42.646;23.642;2022-10-17T17:57:10;12.70;58.80
56753;DHT22;42627;42.646;23.642;2022-10-17T17:59:11;12.60;58.70
56753;DHT22;42627;42.646;23.642;2022-10-17T18:01:21;12.60;58.70
56753;DHT22;42627;42.646;23.642;2022-10-17T18:05:33;12.20;58.90
56753;DHT22;42627;42.646;23.642;2022-10-17T18:07:36;12.00;59.10
56753;DHT22;42627;42.646;23.642;2022-10-17T18:09:37;11.90;59.10
56753;DHT22;42627;42.646;23.642;2022-10-17T18:11:53;11.90;58.80
56753;DHT22;42627;42.646;23.642;2022-10-17T18:13:56;11.90;59.20
56753;DHT22;42627;42.646;23.642;2022-10-17T18:18:07;11.80;58.70
56753;DHT22;42627;42.646;23.642;2022-10-17T18:20:08;11.50;59.40
56753;DHT22;42627;42.646;23.642;2022-10-17T18:22:14;11.30;59.60
56753;DHT22;42627;42.646;23.642;2022-10-17T18:24:36;11.30;59.70
56753;DHT22;42627;42.646;23.642;2022-10-17T18:26:57;11.40;59.10
56753;DHT22;42627;42.646;23.642;2022-10-17T18:29:44;11.30;58.60
56753;DHT22;42627;42.646;23.642;2022-10-17T18:32:05;11.10;59.50
56753;DHT22;42627;42.646;23.642;2022-10-17T18:34:05;11.00;59.70
56753;DHT22;42627;42.646;23.642;2022-10-17T18:36:33;11.00;59.50
56753;DHT22;42627;42.646;23.642;2022-10-17T18:41:07;10.80;60.40
56753;DHT22;42627;42.646;23.642;2022-10-17T18:43:08;10.80;59.40
56753;DHT22;42627;42.646;23.642;2022-10-17T18:45:12;10.50;60.30
56753;DHT22;42627;42.646;23.642;2022-10-17T18:47:28;10.40;60.30
56753;DHT22;42627;42.646;23.642;2022-10-17T18:49:29;10.20;60.50
56753;DHT22;42627;42.646;23.642;2022-10-17T18:51:50;10.10;60.90
56753;DHT22;42627;42.646;23.642;2022-10-17T18:58:12;10.00;60.70
56753;DHT22;42627;42.646;23.642;2022-10-17T19:00:12;9.90;60.90
56753;DHT22;42627;42.646;23.642;2022-10-17T19:02:37;9.80;61.00
56753;DHT22;42627;42.646;23.642;2022-10-17T19:07:25;9.60;60.60
56753;DHT22;42627;42.646;23.642;2022-10-17T19:09:28;9.50;60.70
56753;DHT22;42627;42.646;23.642;2022-10-17T19:13:47;9.40;60.50
56753;DHT22;42627;42.646;23.642;2022-10-17T19:15:47;9.40;60.80
56753;DHT22;42627;42.646;23.642;2022-10-17T19:17:48;9.50;61.30
56753;DHT22;42627;42.646;23.642;2022-10-17T19:19:49;9.50;60.50
56753;DHT22;42627;42.646;23.642;2022-10-17T19:22:16;9.50;60.80
56753;DHT22;42627;42.646;23.642;2022-10-17T19:24:29;9.40;61.30
56753;DHT22;42627;42.646;23.642;2022-10-17T19:26:37;9.20;61.50
56753;DHT22;42627;42.646;23.642;2022-10-17T19:28:39;9.10;61.60
56753;DHT22;42627;42.646;23.642;2022-10-17T19:30:43;9.10;62.00
56753;DHT22;42627;42.646;23.642;2022-10-17T19:32:44;9.00;62.10
56753;DHT22;42627;42.646;23.642;2022-10-17T19:34:46;9.10;62.10
56753;DHT22;42627;42.646;23.642;2022-10-17T19:36:47;9.20;61.90
56753;DHT22;42627;42.646;23.642;2022-10-17T19:38:51;9.30;61.50
56753;DHT22;42627;42.646;23.642;2022-10-17T19:43:03;9.30;61.60
56753;DHT22;42627;42.646;23.642;2022-10-17T19:45:04;9.20;62.10
56753;DHT22;42627;42.646;23.642;2022-10-17T19:47:05;9.20;62.40
56753;DHT22;42627;42.646;23.642;2022-10-17T19:49:06;9.20;62.20
56753;DHT22;42627;42.646;23.642;2022-10-17T19:56:57;9.30;61.50
56753;DHT22;42627;42.646;23.642;2022-10-17T19:58:58;9.30;61.30
56753;DHT22;42627;42.646;23.642;2022-10-17T20:00:59;9.10;61.40
56753;DHT22;42627;42.646;23.642;2022-10-17T20:03:00;8.80;63.00
56753;DHT22;42627;42.646;23.642;2022-10-17T20:05:02;8.60;63.70
56753;DHT22;42627;42.646;23.642;2022-10-17T20:07:07;8.50;63.80
56753;DHT22;42627;42.646;23.642;2022-10-17T20:09:10;8.40;64.00
56753;DHT22;42627;42.646;23.642;2022-10-17T20:13:21;8.50;63.30
56753;DHT22;42627;42.646;23.642;2022-10-17T20:15:22;8.60;63.00
56753;DHT22;42627;42.646;23.642;2022-10-17T20:17:22;8.60;63.00
56753;DHT22;42627;42.646;23.642;2022-10-17T20:19:23;8.70;63.40
56753;DHT22;42627;42.646;23.642;2022-10-17T20:24:39;8.40;64.10
56753;DHT22;42627;42.646;23.642;2022-10-17T20:26:41;8.20;64.50
56753;DHT22;42627;42.646;23.642;2022-10-17T20:28:42;8.00;65.20
56753;DHT22;42627;42.646;23.642;2022-10-17T20:30:44;7.90;65.90
56753;DHT22;42627;42.646;23.642;2022-10-17T20:32:45;7.70;66.60
56753;DHT22;42627;42.646;23.642;2022-10-17T20:34:46;7.50;67.10
56753;DHT22;42627;42.646;23.642;2022-10-17T20:36:47;7.50;67.10
56753;DHT22;42627;42.646;23.642;2022-10-17T20:38:52;7.50;66.90
56753;DHT22;42627;42.646;23.642;2022-10-17T20:41:08;7.40;67.10
56753;DHT22;42627;42.646;23.642;2022-10-17T20:43:10;7.40;67.70
56753;DHT22;42627;42.646;23.642;2022-10-17T20:45:11;7.30;68.10
56753;DHT22;42627;42.646;23.642;2022-10-17T20:47:12;7.20;68.30
56753;DHT22;42627;42.646;23.642;2022-10-17T20:49:15;7.20;68.20
56753;DHT22;42627;42.646;23.642;2022-10-17T20:54:41;7.30;67.90
56753;DHT22;42627;42.646;23.642;2022-10-17T20:56:41;7.40;67.70
56753;DHT22;42627;42.646;23.642;2022-10-17T20:58:42;7.30;67.60
56753;DHT22;42627;42.646;23.642;2022-10-17T21:00:42;7.20;67.80
56753;DHT22;42627;42.646;23.642;2022-10-17T21:02:43;7.20;68.00
56753;DHT22;42627;42.646;23.642;2022-10-17T21:04:44;7.20;68.10
56753;DHT22;42627;42.646;23.642;2022-10-17T21:06:47;7.20;68.30
56753;DHT22;42627;42.646;23.642;2022-10-17T21:09:04;7.30;67.90
56753;DHT22;42627;42.646;23.642;2022-10-17T21:13:08;7.50;67.40
56753;DHT22;42627;42.646;23.642;2022-10-17T21:15:09;7.60;67.60
56753;DHT22;42627;42.646;23.642;2022-10-17T21:17:10;7.70;67.20
56753;DHT22;42627;42.646;23.642;2022-10-17T21:19:34;7.70;67.30
56753;DHT22;42627;42.646;23.642;2022-10-17T21:24:50;7.80;67.80
56753;DHT22;42627;42.646;23.642;2022-10-17T21:26:50;7.80;68.50
56753;DHT22;42627;42.646;23.642;2022-10-17T21:28:54;7.80;68.30
56753;DHT22;42627;42.646;23.642;2022-10-17T21:33:14;7.90;68.20
56753;DHT22;42627;42.646;23.642;2022-10-17T21:35:15;7.90;68.10
56753;DHT22;42627;42.646;23.642;2022-10-17T21:37:15;7.80;68.00
56753;DHT22;42627;42.646;23.642;2022-10-17T21:41:28;7.70;68.40
56753;DHT22;42627;42.646;23.642;2022-10-17T21:43:28;7.70;68.30
56753;DHT22;42627;42.646;23.642;2022-10-17T21:45:29;7.70;68.30
56753;DHT22;42627;42.646;23.642;2022-10-17T21:47:30;7.70;69.30
56753;DHT22;42627;42.646;23.642;2022-10-17T21:49:30;7.60;69.40
56753;DHT22;42627;42.646;23.642;2022-10-17T21:51:31;7.50;69.90
56753;DHT22;42627;42.646;23.642;2022-10-17T21:53:32;7.40;70.30
56753;DHT22;42627;42.646;23.642;2022-10-17T21:58:46;7.40;70.90
56753;DHT22;42627;42.646;23.642;2022-10-17T22:00:48;7.50;70.60
56753;DHT22;42627;42.646;23.642;2022-10-17T22:02:48;7.50;70.50
56753;DHT22;42627;42.646;23.642;2022-10-17T22:04:49;7.40;71.20
56753;DHT22;42627;42.646;23.642;2022-10-17T22:06:49;7.20;71.50
56753;DHT22;42627;42.646;23.642;2022-10-17T22:09:16;7.10;72.30
56753;DHT22;42627;42.646;23.642;2022-10-17T22:11:21;6.90;73.00
56753;DHT22;42627;42.646;23.642;2022-10-17T22:13:22;6.80;73.70
56753;DHT22;42627;42.646;23.642;2022-10-17T22:15:23;6.80;74.00
56753;DHT22;42627;42.646;23.642;2022-10-17T22:17:23;6.70;74.30
56753;DHT22;42627;42.646;23.642;2022-10-17T22:19:25;6.70;74.60
56753;DHT22;42627;42.646;23.642;2022-10-17T22:21:26;6.60;74.80
56753;DHT22;42627;42.646;23.642;2022-10-17T22:23:52;6.60;75.00
56753;DHT22;42627;42.646;23.642;2022-10-17T22:25:54;6.60;75.00
56753;DHT22;42627;42.646;23.642;2022-10-17T22:27:55;6.50;74.70
56753;DHT22;42627;42.646;23.642;2022-10-17T22:29:55;6.50;74.50
56753;DHT22;42627;42.646;23.642;2022-10-17T22:31:56;6.50;74.50
56753;DHT22;42627;42.646;23.642;2022-10-17T22:34:16;6.40;74.40
56753;DHT22;42627;42.646;23.642;2022-10-17T22:39:29;6.40;75.30
56753;DHT22;42627;42.646;23.642;2022-10-17T22:41:29;6.30;76.10
56753;DHT22;42627;42.646;23.642;2022-10-17T22:43:30;6.30;76.10
56753;DHT22;42627;42.646;23.642;2022-10-17T22:45:31;6.30;76.30
56753;DHT22;42627;42.646;23.642;2022-10-17T22:47:32;6.30;76.10
56753;DHT22;42627;42.646;23.642;2022-10-17T22:49:32;6.20;76.00
56753;DHT22;42627;42.646;23.642;2022-10-17T22:51:33;6.30;76.00
56753;DHT22;42627;42.646;23.642;2022-10-17T22:53:49;6.30;75.80
56753;DHT22;42627;42.646;23.642;2022-10-17T22:55:57;6.30;75.80
56753;DHT22;42627;42.646;23.642;2022-10-17T22:57:58;6.40;75.50
56753;DHT22;42627;42.646;23.642;2022-10-17T22:59:59;6.50;74.90
56753;DHT22;42627;42.646;23.642;2022-10-17T23:01:59;6.60;74.70
56753;DHT22;42627;42.646;23.642;2022-10-17T23:09:40;6.80;74.30
56753;DHT22;42627;42.646;23.642;2022-10-17T23:11:41;6.60;75.10
56753;DHT22;42627;42.646;23.642;2022-10-17T23:13:41;6.50;75.80
56753;DHT22;42627;42.646;23.642;2022-10-17T23:15:42;6.30;76.40
56753;DHT22;42627;42.646;23.642;2022-10-17T23:17:42;6.30;76.80
56753;DHT22;42627;42.646;23.642;2022-10-17T23:19:43;6.20;77.20
56753;DHT22;42627;42.646;23.642;2022-10-17T23:21:44;6.10;77.90